Time;durP1;ratioP1;P1;durP2;ratioP2;P2;SDS_P1;SDS_P2;PMS_P1;PMS_P2;Temp;Humidity;BMP_temperature;BMP_pressure;BME280_temperature;BME280_humidity;BME280_pressure;Samples;Min_cycle;Max_cycle;Signal;HPM_P1;HPM_P2
2022/07/03 00:01:52;;;;;;;10.45;2.90;;;;;;;21.99;62.28;98955.13;4954057;28;20031;-50
2022/07/03 00:04:20;;;;;;;6.78;2.50;;;;;;;21.96;62.29;98958.34;4952663;29;20038;-50
2022/07/03 00:06:46;;;;;;;6.22;2.50;;;;;;;21.81;62.42;98956.50;4953891;29;20027;-49
2022/07/03 00:09:12;;;;;;;8.95;2.75;;;;;;;21.66;62.54;98954.59;4952685;29;20027;-49
2022/07/03 00:11:38;;;;;;;4.68;2.45;;;;;;;21.44;62.76;98954.06;4953967;28;20046;-50
2022/07/03 00:14:04;;;;;;;6.60;2.30;;;;;;;21.22;63.49;98955.03;4952571;29;20027;-49
2022/07/03 00:16:30;;;;;;;5.18;2.08;;;;;;;21.17;63.84;98952.38;4953849;28;20023;-50
2022/07/03 00:18:55;;;;;;;4.18;2.05;;;;;;;21.23;63.42;98955.84;4968645;28;20027;-50
2022/07/03 00:21:35;;;;;;;6.03;2.03;;;;;;;21.10;63.30;98951.81;4952640;29;20512;-50
2022/07/03 00:24:20;;;;;;;5.45;2.30;;;;;;;20.97;63.96;98954.94;4953828;29;20094;-49
2022/07/03 00:26:51;;;;;;;7.10;2.40;;;;;;;20.85;64.05;98955.22;4952525;29;20031;-49
2022/07/03 00:29:19;;;;;;;6.55;3.30;;;;;;;20.73;64.44;98960.75;4953762;28;20035;-50
2022/07/03 00:31:47;;;;;;;5.93;2.80;;;;;;;20.64;65.30;98959.63;4953720;28;20023;-50
2022/07/03 00:34:16;;;;;;;5.65;3.15;;;;;;;20.64;65.50;98962.28;4953551;28;20047;-50
2022/07/03 00:36:44;;;;;;;4.38;3.03;;;;;;;20.66;65.95;98954.84;4953568;29;20118;-49
2022/07/03 00:39:10;;;;;;;3.85;2.88;;;;;;;20.59;66.42;98970.28;4952338;29;20020;-49
2022/07/03 00:41:36;;;;;;;7.32;3.10;;;;;;;20.53;66.33;98972.09;4953583;28;20031;-49
2022/07/03 00:44:03;;;;;;;4.20;2.72;;;;;;;20.61;66.30;98965.50;4968327;28;20027;-49
2022/07/03 00:46:29;;;;;;;8.07;2.55;;;;;;;20.80;66.33;98963.16;4952272;29;20580;-49
2022/07/03 00:48:56;;;;;;;9.15;3.40;;;;;;;20.98;65.86;98956.56;4953573;28;20445;-50
2022/07/03 00:51:24;;;;;;;6.50;2.80;;;;;;;20.90;65.50;98955.22;4956439;28;20240;-49
2022/07/03 00:53:55;;;;;;;3.63;2.72;;;;;;;20.72;65.63;98961.81;4957431;28;20034;-49
2022/07/03 00:56:25;;;;;;;5.50;2.65;;;;;;;20.52;66.25;98960.63;4957248;28;20041;-49
2022/07/03 00:58:54;;;;;;;7.82;2.75;;;;;;;20.40;66.75;98965.34;4956000;29;20027;-49
2022/07/03 01:01:24;;;;;;;7.00;3.15;;;;;;;20.42;66.75;98963.22;4957210;28;20023;-49
2022/07/03 01:04:14;;;;;;;12.23;4.03;;;;;;;20.56;67.04;98968.88;4955942;29;20034;-49
2022/07/03 01:06:50;;;;;;;9.10;3.28;;;;;;;21.06;66.22;98964.88;4957227;28;20070;-49
2022/07/03 01:09:22;;;;;;;10.45;2.80;;;;;;;21.51;64.71;98960.75;4957449;28;20058;-50
2022/07/03 01:12:02;;;;;;;14.57;3.70;;;;;;;21.99;63.43;98959.66;4955885;29;20037;-49
2022/07/03 01:14:51;;;;;;;14.10;3.50;;;;;;;22.42;61.83;98955.63;4955798;29;20058;-50
2022/07/03 01:17:31;;;;;;;12.52;3.65;;;;;;;22.86;60.81;98949.59;4957043;28;20090;-49
2022/07/03 01:20:03;;;;;;;13.10;2.92;;;;;;;23.18;59.62;98951.06;4956993;28;20162;-49
2022/07/03 01:22:54;;;;;;;20.83;3.30;;;;;;;23.37;59.36;98953.09;4956999;28;20421;-50
2022/07/03 01:25:45;;;;;;;16.25;3.80;;;;;;;23.58;58.46;98953.75;4956882;28;20038;-50
2022/07/03 01:28:14;;;;;;;11.40;2.70;;;;;;;23.73;57.43;98945.59;4956268;29;20083;-49
2022/07/03 01:30:44;;;;;;;8.30;3.10;;;;;;;23.43;57.52;98957.34;4955421;29;20517;-50
2022/07/03 01:33:15;;;;;;;13.70;3.75;;;;;;;22.96;58.37;98958.63;4955188;29;20567;-49
2022/07/03 01:36:06;;;;;;;7.68;2.58;;;;;;;22.61;59.16;98961.19;4956618;28;20513;-50
2022/07/03 01:38:42;;;;;;;9.25;3.10;;;;;;;22.26;60.28;98960.22;4948627;29;20118;-49
2022/07/03 01:41:11;;;;;;;13.35;3.80;;;;;;;22.45;60.52;98957.75;4955290;29;20032;-50
2022/07/03 01:43:59;;;;;;;6.13;2.88;;;;;;;22.71;59.20;98958.47;4971342;28;20584;-50
2022/07/03 01:46:30;;;;;;;9.52;2.65;;;;;;;22.62;59.23;98953.97;4956487;28;20086;-50
2022/07/03 01:48:58;;;;;;;9.38;3.22;;;;;;;22.38;59.63;98948.44;4955102;29;20027;-50
2022/07/03 01:51:25;;;;;;;7.93;3.00;;;;;;;22.22;60.50;98959.13;4956331;28;20445;-50
2022/07/03 01:53:53;;;;;;;7.45;2.85;;;;;;;22.34;60.30;98956.19;4956331;29;20463;-49
2022/07/03 01:56:21;;;;;;;7.22;3.85;;;;;;;22.48;60.06;98949.19;4956190;28;20031;-49
2022/07/03 01:58:47;;;;;;;11.43;2.70;;;;;;;22.65;59.76;98953.41;4956261;28;20501;-49
2022/07/03 02:01:15;;;;;;;11.75;2.97;;;;;;;22.70;58.81;98951.53;4955878;28;20035;-49
2022/07/03 02:03:51;;;;;;;6.13;2.80;;;;;;;22.67;58.76;98945.91;4955774;28;20034;-50
2022/07/03 02:06:49;;;;;;;11.57;3.65;;;;;;;22.57;59.40;98953.97;4954840;29;20027;-49
2022/07/03 02:09:19;;;;;;;13.32;3.75;;;;;;;22.63;59.20;98956.34;4955797;28;20110;-49
2022/07/03 02:11:46;;;;;;;6.03;3.35;;;;;;;22.88;59.27;98946.66;4954776;29;20465;-49
2022/07/03 02:14:19;;;;;;;8.80;2.72;;;;;;;23.11;58.02;98943.34;4954660;29;20074;-50
2022/07/03 02:17:08;;;;;;;5.45;2.75;;;;;;;22.63;58.30;98944.88;4954557;29;20027;-50
2022/07/03 02:20:01;;;;;;;8.38;2.70;;;;;;;21.93;60.23;98949.00;4955923;28;20027;-49
2022/07/03 02:22:57;;;;;;;8.20;3.30;;;;;;;21.50;61.33;98955.66;4955914;28;20054;-50
2022/07/03 02:25:25;;;;;;;9.90;3.38;;;;;;;21.66;61.91;98945.78;4954474;29;20047;-49
2022/07/03 02:28:06;;;;;;;7.47;3.25;;;;;;;22.05;61.28;98948.69;4955707;28;20031;-50
2022/07/03 02:30:36;;;;;;;14.25;3.35;;;;;;;22.26;60.52;98946.84;4954454;29;20027;-50
2022/07/03 02:33:04;;;;;;;9.18;3.00;;;;;;;22.36;60.01;98947.91;4955409;28;20075;-49
2022/07/03 02:35:32;;;;;;;13.93;2.83;;;;;;;22.22;60.53;98945.75;4954168;29;20118;-50
2022/07/03 02:38:04;;;;;;;7.53;2.33;;;;;;;22.27;60.06;98944.97;4955526;28;20030;-49
2022/07/03 02:40:42;;;;;;;4.72;2.38;;;;;;;22.25;59.92;98929.19;4954256;29;20090;-50
2022/07/03 02:43:46;;;;;;;9.13;2.88;;;;;;;21.78;60.41;98937.50;4955443;28;20031;-49
2022/07/03 02:47:01;;;;;;;2.20;2.00;;;;;;;21.37;61.12;98935.59;4934046;28;20031;-50
2022/07/03 02:50:04;;;;;;;3.42;2.45;;;;;;;20.94;62.45;98938.41;4946980;28;20518;-50
2022/07/03 02:52:42;;;;;;;12.25;2.67;;;;;;;20.74;62.75;98941.81;4953983;29;20106;-50
2022/07/03 02:55:40;;;;;;;3.67;1.98;;;;;;;20.60;63.18;98945.22;4955207;28;20023;-50
2022/07/03 02:58:21;;;;;;;3.75;1.90;;;;;;;20.38;63.90;98948.00;4955205;28;20019;-49
2022/07/03 03:00:58;;;;;;;5.10;2.00;;;;;;;20.20;64.68;98943.88;4955154;29;20438;-49
2022/07/03 03:03:30;;;;;;;7.45;2.75;;;;;;;20.08;65.00;98947.56;4953858;29;20023;-50
2022/07/03 03:06:12;;;;;;;5.07;2.00;;;;;;;20.02;65.38;98945.09;4955107;28;20083;-49
2022/07/03 03:08:48;;;;;;;6.55;2.70;;;;;;;19.91;65.46;98944.22;4955044;28;20034;-50
2022/07/03 03:11:42;;;;;;;4.18;1.95;;;;;;;19.85;65.81;98945.25;4954997;28;20031;-49
2022/07/03 03:14:13;;;;;;;7.00;2.17;;;;;;;19.87;65.93;98945.81;4954023;28;20078;-50
2022/07/03 03:16:52;;;;;;;6.60;2.17;;;;;;;19.87;66.24;98945.81;4954803;28;20039;-51
2022/07/03 03:19:22;;;;;;;5.00;2.42;;;;;;;19.94;66.10;98941.03;4954802;28;20031;-49
2022/07/03 03:22:07;;;;;;;3.20;1.90;;;;;;;20.02;65.95;98942.44;4954663;28;20062;-49
2022/07/03 03:24:33;;;;;;;3.50;2.03;;;;;;;19.93;65.76;98942.91;4953487;29;20050;-50
2022/07/03 03:26:59;;;;;;;5.65;2.10;;;;;;;19.84;66.27;98941.78;4954698;28;20086;-49
2022/07/03 03:29:25;;;;;;;11.57;3.03;;;;;;;20.19;66.37;98948.44;4954626;28;20031;-50
2022/07/03 03:31:51;;;;;;;9.30;2.53;;;;;;;20.61;65.80;98954.84;4954598;28;20449;-50
2022/07/03 03:34:18;;;;;;;9.18;2.92;;;;;;;21.29;64.77;98949.47;4954438;28;20047;-49
2022/07/03 03:36:44;;;;;;;8.88;2.53;;;;;;;21.80;62.51;98938.84;4954411;28;20027;-49
2022/07/03 03:39:10;;;;;;;6.50;2.30;;;;;;;21.93;61.33;98942.84;4954487;28;20031;-50
2022/07/03 03:41:35;;;;;;;12.50;3.67;;;;;;;21.82;61.37;98943.94;4954395;29;20026;-50
2022/07/03 03:44:01;;;;;;;11.48;2.65;;;;;;;21.91;61.39;98940.44;4954336;29;20035;-50
2022/07/03 03:46:27;;;;;;;6.35;2.92;;;;;;;22.08;60.96;98950.84;4953072;29;20035;-50
2022/07/03 03:48:53;;;;;;;12.48;2.78;;;;;;;22.28;60.35;98944.69;4954282;28;20565;-50
2022/07/03 03:51:18;;;;;;;8.80;2.65;;;;;;;22.33;59.64;98944.69;4954244;28;20032;-50
2022/07/03 03:53:44;;;;;;;9.73;2.33;;;;;;;22.10;59.32;98947.91;4954220;28;20119;-50
2022/07/03 03:56:14;;;;;;;12.13;2.40;;;;;;;21.85;60.40;98946.88;4954086;29;20023;-50
2022/07/03 03:58:41;;;;;;;12.35;2.78;;;;;;;21.97;61.17;98951.13;4954470;28;20070;-50
2022/07/03 04:01:09;;;;;;;12.35;3.00;;;;;;;22.32;60.40;98940.41;4954140;28;20088;-50
2022/07/03 04:03:36;;;;;;;15.88;3.42;;;;;;;22.71;59.44;98952.31;4954045;28;20062;-50
2022/07/03 04:06:02;;;;;;;7.38;3.10;;;;;;;23.00;58.83;98943.63;4952708;29;20034;-50
2022/07/03 04:08:29;;;;;;;14.85;3.35;;;;;;;23.19;57.95;98943.84;4954059;28;20055;-50
2022/07/03 04:10:55;;;;;;;7.47;2.95;;;;;;;23.40;57.07;98939.13;4953946;28;20070;-50
2022/07/03 04:13:21;;;;;;;9.77;3.22;;;;;;;23.50;56.69;98941.75;4953955;28;20102;-49
2022/07/03 04:15:51;;;;;;;8.80;2.40;;;;;;;23.53;56.39;98936.63;4953759;28;20027;-50
2022/07/03 04:18:18;;;;;;;8.70;2.72;;;;;;;23.46;56.07;98932.66;4953871;28;20502;-49
2022/07/03 04:20:44;;;;;;;6.88;2.65;;;;;;;23.33;56.20;98937.56;4953878;28;20074;-50
2022/07/03 04:23:10;;;;;;;11.35;2.67;;;;;;;23.13;56.01;98937.72;4953850;28;20031;-50
2022/07/03 04:25:36;;;;;;;9.73;3.42;;;;;;;23.08;56.82;98941.22;4952093;28;20031;-50
2022/07/03 04:28:01;;;;;;;13.77;3.00;;;;;;;23.23;56.89;98943.00;4953804;28;20038;-49
2022/07/03 04:30:27;;;;;;;12.80;3.08;;;;;;;23.40;56.57;98939.13;4953733;28;20023;-49
2022/07/03 04:32:53;;;;;;;11.20;2.75;;;;;;;23.40;56.03;98939.97;4953465;28;20057;-50
2022/07/03 04:35:19;;;;;;;6.18;2.60;;;;;;;23.47;55.67;98937.75;4953636;29;20050;-50
2022/07/03 04:37:45;;;;;;;14.35;3.13;;;;;;;23.63;55.33;98943.81;4953667;28;20098;-50
2022/07/03 04:40:12;;;;;;;4.10;2.50;;;;;;;24.04;54.50;98935.44;4936418;29;20032;-49
2022/07/03 04:42:38;;;;;;;14.20;2.60;;;;;;;24.64;53.37;98936.97;4953617;28;20019;-50
2022/07/03 04:45:04;;;;;;;12.00;3.10;;;;;;;25.20;51.94;98933.56;4953608;28;20062;-49
2022/07/03 04:47:30;;;;;;;10.85;2.78;;;;;;;25.48;50.62;98931.81;4953583;28;20031;-49
2022/07/03 04:49:56;;;;;;;13.27;3.17;;;;;;;25.17;50.81;98936.81;4953569;29;20024;-50
2022/07/03 04:52:22;;;;;;;9.57;2.70;;;;;;;24.98;50.99;98933.34;4953550;28;20027;-49
2022/07/03 04:54:48;;;;;;;11.68;2.88;;;;;;;25.03;51.39;98936.75;4953466;28;20516;-50
2022/07/03 04:57:13;;;;;;;8.93;3.13;;;;;;;25.87;49.31;98935.22;4952180;29;20393;-50
2022/07/03 04:59:39;;;;;;;8.27;2.78;;;;;;;26.44;47.71;98930.47;4952179;29;20031;-50
2022/07/03 05:02:05;;;;;;;5.68;3.08;;;;;;;26.98;46.14;98932.63;4952194;29;20223;-50
2022/07/03 05:04:31;;;;;;;9.30;3.22;;;;;;;27.41;45.05;98921.44;4953459;29;20037;-50
2022/07/03 05:06:57;;;;;;;9.18;2.85;;;;;;;27.93;44.24;98921.00;4952181;29;20035;-49
2022/07/03 05:09:23;;;;;;;4.65;2.40;;;;;;;28.23;42.84;98922.09;4953433;28;20042;-49
2022/07/03 05:11:48;;;;;;;4.80;2.42;;;;;;;28.49;42.16;98925.69;4953269;29;20564;-50
2022/07/03 05:14:14;;;;;;;13.63;4.15;;;;;;;28.96;41.06;98921.69;4953346;28;20038;-49
2022/07/03 05:16:40;;;;;;;12.25;2.78;;;;;;;29.48;40.26;98924.41;4967985;28;20024;-50
2022/07/03 05:19:06;;;;;;;6.65;2.20;;;;;;;30.13;38.80;98917.09;4952072;29;20114;-50
2022/07/03 05:21:32;;;;;;;8.52;2.10;;;;;;;30.80;37.62;98915.50;4953281;29;20374;-50
2022/07/03 05:23:58;;;;;;;10.40;3.00;;;;;;;31.16;37.16;98916.84;4953266;28;20031;-50
2022/07/03 05:26:24;;;;;;;9.43;2.22;;;;;;;31.30;36.88;98921.22;4951974;29;20031;-50
2022/07/03 05:28:49;;;;;;;5.30;2.70;;;;;;;31.64;35.98;98912.00;4951968;29;20031;-50
2022/07/03 05:31:15;;;;;;;8.27;2.35;;;;;;;32.11;35.04;98908.13;4953176;28;20065;-50
2022/07/03 05:33:41;;;;;;;7.07;1.88;;;;;;;32.54;33.92;98912.19;4952998;28;20050;-50
2022/07/03 05:36:07;;;;;;;9.32;2.30;;;;;;;33.04;33.64;98909.09;4951785;28;20031;-51
2022/07/03 05:41:17;;;;;;;;;;;;;;;34.31;32.62;98905.00;4957052;29;20045;-49
2022/07/03 05:43:44;;;;;;;14.85;2.30;;;;;;;34.34;31.21;98909.78;4971306;28;20440;-50
2022/07/03 05:46:09;;;;;;;13.43;2.03;;;;;;;34.53;30.72;98912.56;4955234;29;20445;-50
2022/07/03 05:48:35;;;;;;;20.70;2.60;;;;;;;34.94;30.58;98910.34;4956742;28;20039;-50
2022/07/03 05:51:02;;;;;;;10.70;1.83;;;;;;;35.43;29.90;98917.19;4956376;28;20023;-50
2022/07/03 05:53:28;;;;;;;7.38;1.83;;;;;;;35.76;29.49;98921.31;4955363;29;20034;-50
2022/07/03 05:55:53;;;;;;;10.00;2.08;;;;;;;36.18;28.75;98915.00;4956242;28;20027;-50
2022/07/03 05:58:19;;;;;;;4.40;2.03;;;;;;;36.63;28.09;98921.56;4956303;29;20019;-51
2022/07/03 06:00:45;;;;;;;15.65;2.35;;;;;;;36.83;27.83;98924.97;4956200;29;20030;-50
2022/07/03 06:03:11;;;;;;;5.25;1.70;;;;;;;36.63;28.14;98918.84;4954889;29;20035;-50
2022/07/03 06:05:36;;;;;;;7.53;2.83;;;;;;;36.39;29.46;98923.53;4956137;28;20078;-50
2022/07/03 06:08:02;;;;;;;12.10;3.30;;;;;;;36.50;30.62;98920.97;4956170;28;20023;-50
2022/07/03 06:10:29;;;;;;;23.75;3.35;;;;;;;36.38;29.71;98924.72;4954706;29;20027;-49
2022/07/03 06:12:55;;;;;;;19.05;2.70;;;;;;;36.23;28.85;98927.59;4956030;28;20501;-50
2022/07/03 06:15:21;;;;;;;15.30;3.25;;;;;;;36.82;28.04;98926.13;4955939;28;20076;-50
2022/07/03 06:17:47;;;;;;;7.65;2.05;;;;;;;37.22;27.20;98929.38;4955947;28;20498;-51
2022/07/03 06:20:13;;;;;;;16.77;4.03;;;;;;;37.38;27.27;98929.94;4955850;28;20030;-51
2022/07/03 06:22:39;;;;;;;7.30;1.90;;;;;;;37.65;26.27;98935.34;4955817;28;20083;-50
2022/07/03 06:25:06;;;;;;;17.92;3.35;;;;;;;38.09;25.99;98929.91;4955818;28;20532;-50
2022/07/03 06:27:33;;;;;;;7.57;2.67;;;;;;;38.78;24.81;98925.69;4955796;28;20039;-48
2022/07/03 06:29:59;;;;;;;5.55;1.67;;;;;;;39.24;24.05;98927.03;4955710;28;20073;-48
2022/07/03 06:32:24;;;;;;;7.38;1.70;;;;;;;39.58;23.75;98922.06;4955417;28;20110;-49
2022/07/03 06:34:50;;;;;;;3.55;1.60;;;;;;;40.08;23.18;98921.31;4955677;28;20035;-49
2022/07/03 06:37:16;;;;;;;5.35;2.00;;;;;;;40.08;23.12;98927.59;4955522;29;20165;-49
2022/07/03 06:39:42;;;;;;;3.03;1.60;;;;;;;40.37;22.82;98926.81;4955545;28;20029;-48
2022/07/03 06:42:07;;;;;;;3.45;1.50;;;;;;;40.73;22.44;98922.81;4955503;28;20019;-51
2022/07/03 06:44:33;;;;;;;4.30;1.70;;;;;;;41.06;21.88;98919.97;4955444;28;20117;-50
2022/07/03 06:47:02;;;;;;;11.27;2.85;;;;;;;41.40;22.04;98924.94;4955434;29;20505;-51
2022/07/03 06:49:29;;;;;;;6.93;1.77;;;;;;;41.54;21.71;98919.31;4955171;28;20035;-51
2022/07/03 06:51:55;;;;;;;13.73;2.30;;;;;;;41.83;21.34;98922.66;4955326;28;20031;-51
2022/07/03 06:54:21;;;;;;;5.18;1.60;;;;;;;41.68;21.39;98922.00;4955532;28;20401;-51
2022/07/03 06:56:46;;;;;;;10.20;2.67;;;;;;;41.87;20.78;98923.44;4955103;29;20401;-51
2022/07/03 06:59:12;;;;;;;10.73;2.55;;;;;;;42.16;20.94;98917.72;4955223;29;20027;-50
2022/07/03 07:01:38;;;;;;;5.80;2.17;;;;;;;42.01;20.64;98917.00;4955094;28;20027;-50
2022/07/03 07:04:03;;;;;;;3.38;2.00;;;;;;;41.78;20.75;98911.31;4955350;29;20074;-50
2022/07/03 07:06:29;;;;;;;15.55;2.58;;;;;;;42.00;20.47;98923.72;4953715;29;20067;-51
2022/07/03 07:08:55;;;;;;;6.68;2.05;;;;;;;41.91;20.59;98918.66;4955001;28;20038;-50
2022/07/03 07:11:21;;;;;;;21.25;3.70;;;;;;;42.12;19.90;98919.72;4954899;28;20023;-51
2022/07/03 07:13:47;;;;;;;17.52;2.72;;;;;;;42.71;19.75;98915.97;4953907;29;20038;-49
2022/07/03 07:16:12;;;;;;;9.77;1.98;;;;;;;42.44;19.60;98916.66;4954747;29;20019;-52
2022/07/03 07:18:40;;;;;;;8.50;1.95;;;;;;;42.22;18.96;98915.28;4953503;29;20424;-49
2022/07/03 07:21:06;;;;;;;14.60;2.67;;;;;;;42.25;19.38;98909.72;4954783;28;20082;-49
2022/07/03 07:23:32;;;;;;;7.40;2.00;;;;;;;42.09;19.29;98915.00;4954640;28;20027;-50
2022/07/03 07:25:58;;;;;;;15.73;2.65;;;;;;;42.09;19.10;98910.25;4953372;29;20019;-51
2022/07/03 07:28:24;;;;;;;15.95;3.05;;;;;;;41.82;19.43;98904.56;4954658;28;20062;-51
2022/07/03 07:30:53;;;;;;;18.13;3.42;;;;;;;41.48;20.26;98909.91;4953253;29;20031;-51
2022/07/03 07:33:19;;;;;;;2.47;1.40;;;;;;;40.94;20.33;98910.19;4954307;28;20505;-51
2022/07/03 07:35:45;;;;;;;6.75;1.80;;;;;;;40.45;20.93;98911.91;4953151;29;20043;-51
2022/07/03 07:38:11;;;;;;;15.82;3.60;;;;;;;40.21;20.90;98907.97;4954524;29;20397;-51
2022/07/03 07:40:37;;;;;;;9.25;1.73;;;;;;;39.95;21.54;98907.22;4953099;29;20062;-51
2022/07/03 07:43:03;;;;;;;7.32;1.45;;;;;;;39.71;21.40;98906.00;4954441;28;20027;-50
2022/07/03 07:45:29;;;;;;;6.95;1.60;;;;;;;39.89;21.70;98906.81;4954344;28;20035;-50
2022/07/03 07:47:54;;;;;;;7.15;2.08;;;;;;;40.42;21.16;98912.69;4954305;28;20505;-51
2022/07/03 07:50:20;;;;;;;6.53;1.50;;;;;;;40.80;20.58;98896.47;4954265;29;20111;-51
2022/07/03 07:52:46;;;;;;;15.05;1.83;;;;;;;41.25;20.17;98902.97;4954293;28;20023;-51
2022/07/03 07:55:12;;;;;;;6.72;1.77;;;;;;;41.88;19.50;98902.94;4954115;28;20034;-49
2022/07/03 07:57:39;;;;;;;9.07;1.77;;;;;;;42.31;18.60;98897.06;4954076;29;20019;-51
2022/07/03 08:00:10;;;;;;;10.05;1.70;;;;;;;42.96;17.94;98901.88;4952263;28;20149;-50
2022/07/03 08:05:38;;;;;;;2.10;1.30;;;;;;;43.48;17.34;98898.03;4954085;29;20038;-53
2022/07/03 08:08:11;;;;;;;3.20;1.50;;;;;;;43.56;17.15;98899.47;4954118;28;20031;-52
2022/07/03 08:10:48;;;;;;;4.22;1.70;;;;;;;44.36;16.43;98891.44;4954015;28;20031;-53
2022/07/03 08:13:15;;;;;;;11.18;2.30;;;;;;;44.65;16.27;98891.69;4954032;28;20486;-54
2022/07/03 08:15:42;;;;;;;3.92;1.67;;;;;;;44.40;16.12;98891.38;4952612;29;20472;-54
2022/07/03 08:18:09;;;;;;;3.50;1.25;;;;;;;44.56;16.32;98894.25;4953982;28;20019;-53
2022/07/03 08:20:35;;;;;;;9.75;2.65;;;;;;;44.74;16.35;98885.56;4953867;28;20051;-54
2022/07/03 08:23:02;;;;;;;3.35;1.45;;;;;;;44.84;16.52;98892.09;4953914;28;20062;-53
2022/07/03 08:25:29;;;;;;;4.53;1.73;;;;;;;44.93;17.45;98878.47;4952597;29;20028;-54
2022/07/03 08:27:58;;;;;;;5.25;1.58;;;;;;;45.06;16.81;98873.81;4953905;28;20027;-54
2022/07/03 08:30:25;;;;;;;5.25;1.45;;;;;;;45.41;16.33;98882.53;4953794;28;20030;-54
2022/07/03 08:32:53;;;;;;;4.47;1.63;;;;;;;45.74;16.14;98881.78;4953574;28;20047;-53
2022/07/03 08:35:19;;;;;;;7.57;1.80;;;;;;;45.98;15.64;98885.13;4953678;28;20398;-53
2022/07/03 08:37:47;;;;;;;5.63;1.50;;;;;;;46.28;15.40;98877.63;4953747;28;20088;-52
2022/07/03 08:40:18;;;;;;;4.78;1.58;;;;;;;46.45;15.66;98873.63;4953713;28;20020;-53
2022/07/03 08:42:53;;;;;;;4.40;1.42;;;;;;;46.52;15.26;98872.63;4952431;29;20552;-53
2022/07/03 08:45:20;;;;;;;6.40;1.35;;;;;;;46.61;15.06;98872.78;4952388;29;20386;-53
2022/07/03 08:47:48;;;;;;;3.25;1.17;;;;;;;46.64;14.91;98871.88;4953626;28;20102;-54
2022/07/03 08:50:16;;;;;;;2.50;1.05;;;;;;;46.69;14.38;98874.13;4953600;28;20462;-53
2022/07/03 08:52:42;;;;;;;7.28;1.17;;;;;;;46.73;14.21;98868.44;4952314;29;20122;-53
2022/07/03 08:55:10;;;;;;;5.10;1.20;;;;;;;46.92;14.29;98864.72;4952168;29;20023;-53
2022/07/03 08:57:40;;;;;;;1.65;1.05;;;;;;;47.06;14.26;98871.06;4953571;28;20401;-54
2022/07/03 09:00:09;;;;;;;6.40;1.50;;;;;;;47.17;14.27;98863.19;4953502;28;20497;-53
2022/07/03 09:02:35;;;;;;;21.48;2.15;;;;;;;47.11;14.27;98865.75;4953470;28;20489;-53
2022/07/03 09:05:02;;;;;;;7.60;1.80;;;;;;;46.81;14.25;98859.50;4952151;29;20023;-53
2022/07/03 09:07:34;;;;;;;24.42;2.67;;;;;;;46.70;14.39;98861.00;4953439;28;20102;-53
2022/07/03 09:09:59;;;;;;;24.17;4.07;;;;;;;46.70;14.20;98867.31;4953507;28;20069;-53
2022/07/03 09:12:26;;;;;;;3.13;1.17;;;;;;;46.68;13.77;98863.44;4956262;28;20113;-53
2022/07/03 09:14:51;;;;;;;5.25;1.33;;;;;;;46.94;13.60;98856.72;4957151;28;20405;-54
2022/07/03 09:17:18;;;;;;;3.75;1.20;;;;;;;47.17;13.02;98858.44;4956947;29;20043;-53
2022/07/03 09:19:47;;;;;;;5.18;0.95;;;;;;;47.14;13.08;98855.72;4957031;28;20043;-54
2022/07/03 09:22:21;;;;;;;5.30;1.50;;;;;;;47.02;13.00;98858.06;4956915;28;20042;-53
2022/07/03 09:24:49;;;;;;;3.05;0.98;;;;;;;47.12;12.80;98860.94;4956973;28;20023;-54
2022/07/03 09:27:21;;;;;;;7.68;1.23;;;;;;;47.46;12.69;98865.06;4956821;28;20031;-54
2022/07/03 09:30:08;;;;;;;1.85;0.82;;;;;;;48.02;12.20;98867.19;4955549;29;20106;-53
2022/07/03 09:32:36;;;;;;;7.55;1.55;;;;;;;47.96;12.35;98866.22;4956459;28;20039;-53
2022/07/03 09:35:26;;;;;;;5.97;1.17;;;;;;;47.44;13.32;98873.06;4955367;29;20417;-53
2022/07/03 09:38:04;;;;;;;4.72;1.40;;;;;;;47.00;13.80;98868.81;4956736;28;20092;-54
2022/07/03 09:40:51;;;;;;;12.95;1.77;;;;;;;47.20;13.54;98867.88;4956641;28;20446;-53
2022/07/03 09:43:29;;;;;;;3.00;1.20;;;;;;;47.16;13.40;98864.38;4955250;29;20038;-53
2022/07/03 09:45:57;;;;;;;4.18;1.10;;;;;;;46.95;13.52;98863.84;4956591;28;20472;-53
2022/07/03 09:48:27;;;;;;;3.97;1.30;;;;;;;46.64;13.66;98869.88;4956491;28;20034;-53
2022/07/03 09:51:09;;;;;;;4.65;1.20;;;;;;;46.02;14.43;98866.41;4956482;28;20035;-53
2022/07/03 09:53:46;;;;;;;12.32;2.60;;;;;;;45.89;15.14;98866.34;4956391;28;20489;-54
2022/07/03 09:56:11;;;;;;;2.63;1.20;;;;;;;46.10;14.82;98858.69;4954928;29;20026;-54
2022/07/03 09:58:38;;;;;;;10.65;2.10;;;;;;;46.32;14.53;98864.44;4956327;28;20027;-53
2022/07/03 10:01:18;;;;;;;6.60;1.60;;;;;;;46.46;14.72;98857.72;4956248;28;20126;-54
2022/07/03 10:03:43;;;;;;;1.65;1.05;;;;;;;46.57;14.90;98858.97;4956217;28;20506;-53
2022/07/03 10:06:09;;;;;;;6.53;1.35;;;;;;;46.63;14.28;98867.56;4956170;28;20175;-53
2022/07/03 10:08:37;;;;;;;3.38;1.10;;;;;;;46.31;14.60;98858.13;4954856;29;20055;-54
2022/07/03 10:11:04;;;;;;;7.28;1.90;;;;;;;46.07;14.95;98856.81;4956038;28;20031;-53
2022/07/03 10:13:33;;;;;;;3.90;1.05;;;;;;;45.87;15.07;98849.34;4956065;28;20056;-53
2022/07/03 10:16:00;;;;;;;9.95;1.70;;;;;;;45.79;14.53;98851.53;4955849;28;20027;-53
2022/07/03 10:18:30;;;;;;;4.32;1.02;;;;;;;45.82;14.97;98853.44;4955971;28;20098;-53
2022/07/03 10:20:59;;;;;;;8.40;1.25;;;;;;;45.73;15.32;98849.72;4956259;28;20031;-53
2022/07/03 10:23:27;;;;;;;5.07;1.50;;;;;;;45.61;15.69;98845.66;4955289;28;20559;-53
2022/07/03 10:25:54;;;;;;;3.40;1.20;;;;;;;45.88;15.21;98845.34;4955806;28;20071;-54
2022/07/03 10:28:20;;;;;;;6.60;1.00;;;;;;;45.65;15.44;98843.59;4954711;29;20039;-53
2022/07/03 10:30:49;;;;;;;3.85;1.27;;;;;;;45.46;15.75;98850.78;4955735;28;20023;-53
2022/07/03 10:33:15;;;;;;;2.60;1.02;;;;;;;45.70;15.87;98854.16;4954153;29;20058;-53
2022/07/03 10:35:45;;;;;;;3.95;1.45;;;;;;;45.86;16.04;98842.25;4955812;28;20393;-53
2022/07/03 10:38:10;;;;;;;3.72;1.20;;;;;;;45.77;15.81;98845.66;4970420;28;20039;-52
2022/07/03 10:46:30;;;;;;;3.33;1.20;;;;;;;45.93;16.03;98842.06;4955509;29;20042;-53
2022/07/03 10:49:06;;;;;;;4.85;1.23;;;;;;;46.04;16.16;98844.56;4954100;29;20035;-54
2022/07/03 10:51:56;;;;;;;331.58;243.30;;;;;;;46.34;15.96;98839.78;4954123;29;20034;-53
2022/07/03 10:54:48;;;;;;;173.75;100.35;;;;;;;46.15;16.37;98835.97;4946728;28;20519;-53
2022/07/03 10:57:18;;;;;;;25.75;15.07;;;;;;;44.86;17.44;98842.59;4955251;28;20027;-53
2022/07/03 10:59:46;;;;;;;21.85;11.55;;;;;;;44.24;17.97;98833.97;4955190;28;20086;-54
2022/07/03 11:02:21;;;;;;;19.48;10.45;;;;;;;44.18;17.80;98836.44;4953792;29;20102;-53
2022/07/03 11:05:01;;;;;;;14.07;5.97;;;;;;;44.72;16.99;98829.06;4955297;28;20058;-53
2022/07/03 11:07:55;;;;;;;3.80;2.33;;;;;;;44.67;16.93;98828.38;4955037;29;20031;-54
2022/07/03 11:10:23;;;;;;;8.63;4.13;;;;;;;44.34;17.79;98830.19;4955003;28;20058;-53
2022/07/03 11:13:06;;;;;;;6.57;2.03;;;;;;;44.88;17.66;98829.13;4954968;28;20438;-54
2022/07/03 11:15:45;;;;;;;6.60;2.08;;;;;;;45.21;17.35;98829.16;4954858;28;20482;-51
2022/07/03 11:18:27;;;;;;;7.05;2.20;;;;;;;45.29;17.07;98827.03;4953589;29;20042;-54
2022/07/03 11:20:53;;;;;;;8.75;2.20;;;;;;;45.50;16.51;98832.06;4954861;28;20043;-53
2022/07/03 11:23:30;;;;;;;9.85;2.60;;;;;;;45.54;16.96;98840.25;4953460;29;20401;-53
2022/07/03 11:25:58;;;;;;;5.63;1.70;;;;;;;45.56;16.86;98832.28;4954676;29;20027;-53
2022/07/03 11:28:32;;;;;;;6.75;2.10;;;;;;;45.50;17.33;98832.06;4953356;29;20031;-53
2022/07/03 11:31:07;;;;;;;4.15;1.90;;;;;;;45.37;17.27;98820.88;4953349;29;20027;-53
2022/07/03 11:33:51;;;;;;;6.00;1.70;;;;;;;45.32;17.06;98824.19;4954372;28;20109;-53
2022/07/03 11:36:17;;;;;;;8.52;2.50;;;;;;;45.16;17.90;98813.84;4952564;29;20027;-53
2022/07/03 11:38:45;;;;;;;4.43;1.95;;;;;;;45.20;17.64;98811.00;4954713;29;20059;-53
2022/07/03 11:41:14;;;;;;;7.25;1.73;;;;;;;45.42;17.15;98802.94;4954397;28;20023;-52
2022/07/03 11:43:50;;;;;;;8.93;2.67;;;;;;;45.54;17.19;98793.13;4954381;28;20114;-52
2022/07/03 11:46:23;;;;;;;9.75;2.05;;;;;;;45.51;17.66;98794.03;4954295;28;20525;-53
2022/07/03 11:49:03;;;;;;;7.32;3.17;;;;;;;45.39;18.52;98798.28;4954356;28;20027;-52
2022/07/03 11:51:29;;;;;;;3.28;1.10;;;;;;;45.45;17.19;98786.22;4954360;28;20078;-53
2022/07/03 11:53:55;;;;;;;7.28;1.60;;;;;;;45.64;17.20;98781.81;4954262;29;20425;-53
2022/07/03 11:56:21;;;;;;;6.72;2.40;;;;;;;45.78;17.56;98796.50;4952873;29;20058;-54
2022/07/03 11:58:52;;;;;;;2.10;1.20;;;;;;;45.54;16.69;98779.28;4954185;28;20019;-54